createdAt,value
2023-02-05T00:00:42.964Z,5.65
2023-02-05T00:02:44.637Z,5.75
2023-02-05T00:05:05.181Z,6.03
2023-02-05T00:07:25.332Z,6.35
2023-02-05T00:11:30.951Z,6.47
2023-02-05T00:13:39.267Z,5.72
2023-02-05T00:15:40.900Z,7.00
2023-02-05T00:17:42.689Z,5.80
2023-02-05T00:19:47.146Z,5.45
2023-02-05T00:21:49.940Z,4.30
2023-02-05T00:23:51.777Z,5.07
2023-02-05T00:25:58.635Z,4.28
2023-02-05T00:28:00.115Z,4.90
2023-02-05T00:30:04.913Z,6.05
2023-02-05T00:32:06.375Z,5.45
2023-02-05T00:34:07.967Z,5.25
2023-02-05T00:36:28.036Z,4.53
2023-02-05T00:40:36.712Z,5.03
2023-02-05T00:42:38.175Z,5.50
2023-02-05T00:44:39.675Z,3.83
2023-02-05T00:46:41.105Z,3.92
2023-02-05T00:48:42.961Z,4.32
2023-02-05T00:50:44.372Z,4.00
2023-02-05T00:52:48.458Z,3.65
2023-02-05T00:54:49.872Z,3.78
2023-02-05T00:56:54.244Z,4.22
2023-02-05T00:59:02.771Z,5.53
2023-02-05T01:01:04.710Z,4.07
2023-02-05T01:03:09.277Z,4.32
2023-02-05T01:05:13.792Z,3.95
2023-02-05T01:07:18.230Z,4.70
2023-02-05T01:09:19.860Z,4.25
2023-02-05T01:11:27.254Z,4.38
2023-02-05T01:13:28.687Z,3.72
2023-02-05T01:15:30.276Z,4.75
2023-02-05T01:17:31.808Z,3.80
2023-02-05T01:19:34.220Z,3.83
2023-02-05T01:21:38.646Z,3.85
2023-02-05T01:23:40.111Z,4.00
2023-02-05T01:25:41.717Z,4.93
2023-02-05T01:27:43.405Z,4.20
2023-02-05T01:29:47.929Z,4.60
2023-02-05T01:31:52.850Z,4.80
2023-02-05T01:33:54.352Z,4.13
2023-02-05T01:35:58.869Z,5.32
2023-02-05T01:38:03.300Z,4.35
2023-02-05T01:40:08.572Z,5.35
2023-02-05T01:42:20.754Z,6.00
2023-02-05T01:44:24.702Z,6.18
2023-02-05T01:46:29.453Z,4.22
2023-02-05T01:48:35.174Z,5.43
2023-02-05T01:50:44.964Z,5.03
2023-02-05T01:52:46.518Z,6.40
2023-02-05T01:54:53.138Z,5.22
2023-02-05T01:57:01.414Z,5.35
2023-02-05T01:59:09.558Z,7.57
2023-02-05T02:01:11.137Z,6.18
2023-02-05T02:03:18.437Z,6.25
2023-02-05T02:05:22.899Z,5.78
2023-02-05T02:07:24.910Z,6.10
2023-02-05T02:09:26.361Z,7.00
2023-02-05T02:11:30.237Z,6.45
2023-02-05T02:13:40.743Z,7.18
2023-02-05T02:15:52.305Z,7.30
2023-02-05T02:18:22.914Z,8.35
2023-02-05T02:20:34.496Z,7.85
2023-02-05T02:22:55.932Z,7.32
2023-02-05T02:25:08.144Z,9.07
2023-02-05T02:27:35.660Z,7.90
2023-02-05T02:29:57.227Z,7.28
2023-02-05T02:32:06.829Z,7.57
2023-02-05T02:34:42.096Z,8.30
2023-02-05T02:36:48.851Z,6.88
2023-02-05T02:39:10.724Z,7.30
2023-02-05T02:41:23.137Z,6.07
2023-02-05T02:43:39.774Z,6.53
2023-02-05T02:45:46.521Z,6.57
2023-02-05T02:47:50.614Z,6.43
2023-02-05T02:49:57.708Z,5.50
2023-02-05T02:54:05.969Z,4.72
2023-02-05T02:56:12.136Z,4.55
2023-02-05T02:58:18.257Z,4.63
2023-02-05T03:00:24.927Z,4.20
2023-02-05T03:02:29.166Z,3.63
2023-02-05T03:04:36.420Z,2.58
2023-02-05T03:06:43.346Z,4.47
2023-02-05T03:08:57.643Z,3.17
2023-02-05T03:11:04.256Z,3.00
2023-02-05T03:13:05.744Z,2.05
2023-02-05T03:17:18.515Z,1.73
2023-02-05T03:19:22.738Z,1.98
2023-02-05T03:21:30.136Z,2.15
2023-02-05T03:23:34.637Z,2.72
2023-02-05T03:25:36.443Z,1.73
2023-02-05T03:27:38.384Z,2.47
2023-02-05T03:29:45.657Z,1.63
2023-02-05T03:31:52.295Z,1.88
2023-02-05T03:33:55.501Z,1.80
2023-02-05T03:36:10.012Z,1.52
2023-02-05T03:38:32.731Z,1.85
2023-02-05T03:40:50.993Z,1.80
2023-02-05T03:43:00.949Z,1.67
2023-02-05T03:45:02.457Z,2.08
2023-02-05T03:47:17.268Z,2.55
2023-02-05T03:49:37.478Z,1.55
2023-02-05T03:51:50.198Z,1.98
2023-02-05T03:53:54.542Z,1.40
2023-02-05T03:56:01.147Z,2.20
2023-02-05T03:58:06.372Z,2.35
2023-02-05T04:00:08.243Z,3.05
2023-02-05T04:02:13.759Z,1.55
2023-02-05T04:04:15.374Z,1.67
2023-02-05T04:06:16.924Z,1.42
2023-02-05T04:08:21.661Z,2.42
2023-02-05T04:10:28.809Z,1.40
2023-02-05T04:12:33.326Z,3.40
2023-02-05T04:14:37.863Z,2.53
2023-02-05T04:18:46.528Z,2.40
2023-02-05T04:20:54.120Z,1.73
2023-02-05T04:24:59.843Z,2.38
2023-02-05T04:27:04.231Z,2.08
2023-02-05T04:29:08.988Z,1.75
2023-02-05T04:31:13.634Z,1.83
2023-02-05T04:33:17.941Z,2.70
2023-02-05T04:35:22.489Z,2.35
2023-02-05T04:37:25.158Z,1.58
2023-02-05T04:39:26.720Z,1.48
2023-02-05T04:41:28.807Z,2.28
2023-02-05T04:43:30.328Z,1.92
2023-02-05T04:45:33.595Z,2.13
2023-02-05T04:47:38.050Z,2.10
2023-02-05T04:49:42.363Z,2.42
2023-02-05T04:51:43.856Z,1.90
2023-02-05T04:53:48.382Z,2.33
2023-02-05T04:55:50.023Z,2.50
2023-02-05T04:57:54.250Z,2.03
2023-02-05T04:59:55.828Z,2.15
2023-02-05T05:02:03.358Z,2.20
2023-02-05T05:04:05.053Z,1.95
2023-02-05T05:06:09.589Z,2.03
2023-02-05T05:08:11.037Z,2.13
2023-02-05T05:12:19.392Z,2.67
2023-02-05T05:14:21.063Z,2.47
2023-02-05T05:16:22.754Z,3.95
2023-02-05T05:18:33.219Z,1.83
2023-02-05T05:20:48.544Z,2.08
2023-02-05T05:23:04.939Z,2.65
2023-02-05T05:25:33.284Z,1.80
2023-02-05T05:27:43.548Z,2.20
2023-02-05T05:29:57.876Z,5.43
2023-02-05T05:32:13.598Z,2.85
2023-02-05T05:34:31.201Z,2.60
2023-02-05T05:36:43.890Z,2.45
2023-02-05T05:38:54.181Z,2.85
2023-02-05T05:41:25.390Z,2.90
2023-02-05T05:43:52.828Z,2.33
2023-02-05T05:46:04.127Z,2.90
2023-02-05T05:48:15.373Z,2.63
2023-02-05T05:50:26.547Z,2.13
2023-02-05T05:52:32.361Z,2.00
2023-02-05T05:54:34.125Z,2.95
2023-02-05T05:56:54.324Z,2.15
2023-02-05T05:59:14.519Z,2.88
2023-02-05T06:01:17.088Z,2.70
2023-02-05T06:03:24.537Z,3.03
2023-02-05T06:07:30.027Z,1.90
2023-02-05T06:11:41.245Z,3.58
2023-02-05T06:13:42.700Z,2.13
2023-02-05T06:15:44.214Z,2.28
2023-02-05T06:17:48.801Z,3.47
2023-02-05T06:19:53.456Z,3.22
2023-02-05T06:21:55.027Z,2.20
2023-02-05T06:23:56.564Z,2.33
2023-02-05T06:26:16.558Z,3.40
2023-02-05T06:28:20.682Z,3.80
2023-02-05T06:30:22.309Z,2.28
2023-02-05T06:32:27.004Z,4.03
2023-02-05T06:34:28.457Z,2.47
2023-02-05T06:36:32.840Z,2.92
2023-02-05T06:38:34.467Z,2.90
2023-02-05T06:42:58.594Z,2.90
2023-02-05T06:45:02.835Z,2.63
2023-02-05T06:49:11.255Z,2.37
2023-02-05T06:51:13.652Z,4.60
2023-02-05T06:53:15.125Z,2.42
2023-02-05T06:55:19.324Z,2.63
2023-02-05T06:57:23.875Z,2.67
2023-02-05T06:59:25.376Z,3.08
2023-02-05T07:01:29.911Z,3.47
2023-02-05T07:03:31.519Z,2.75
2023-02-05T07:07:37.387Z,2.55
2023-02-05T07:09:44.740Z,2.65
2023-02-05T07:11:49.138Z,2.72
2023-02-05T07:13:53.560Z,3.20
2023-02-05T07:16:04.904Z,3.70
2023-02-05T07:18:09.462Z,2.60
2023-02-05T07:20:14.046Z,4.47
2023-02-05T07:22:16.138Z,2.25
2023-02-05T07:24:17.671Z,2.97
2023-02-05T07:26:19.427Z,2.33
2023-02-05T07:28:24.086Z,2.85
2023-02-05T07:30:25.848Z,2.97
2023-02-05T07:32:27.409Z,3.60
2023-02-05T07:34:31.712Z,2.85
2023-02-05T07:36:33.188Z,3.30
2023-02-05T07:38:37.836Z,2.90
2023-02-05T07:40:42.349Z,1.98
2023-02-05T07:42:43.961Z,2.35
2023-02-05T07:44:48.470Z,2.13
2023-02-05T07:46:53.052Z,2.72
2023-02-05T07:51:04.748Z,5.20
2023-02-05T07:53:06.196Z,2.13
2023-02-05T07:55:07.955Z,3.08
2023-02-05T07:57:12.549Z,3.03
2023-02-05T08:01:18.515Z,2.17
2023-02-05T08:03:23.406Z,2.50
2023-02-05T08:05:24.887Z,1.85
2023-02-05T08:07:26.858Z,2.25
2023-02-05T08:09:28.360Z,2.80
2023-02-05T08:11:32.947Z,3.17
2023-02-05T08:13:34.594Z,2.67
2023-02-05T08:15:38.386Z,2.33
2023-02-05T08:17:42.697Z,3.33
2023-02-05T08:19:44.295Z,2.58
2023-02-05T08:21:50.904Z,2.35
2023-02-05T08:24:03.665Z,2.75
2023-02-05T08:26:20.549Z,3.70
2023-02-05T08:28:37.550Z,3.78
2023-02-05T08:31:06.084Z,3.13
2023-02-05T08:35:18.558Z,2.75
2023-02-05T08:37:29.813Z,3.65
2023-02-05T08:39:39.382Z,2.85
2023-02-05T08:41:43.968Z,3.00
2023-02-05T08:43:59.464Z,3.10
2023-02-05T08:46:15.095Z,3.45
2023-02-05T08:48:22.623Z,2.90
2023-02-05T08:50:30.059Z,3.22
2023-02-05T08:52:42.483Z,3.22
2023-02-05T08:54:54.752Z,3.00
2023-02-05T08:56:58.039Z,5.30
2023-02-05T08:59:18.199Z,2.78
2023-02-05T09:01:25.861Z,2.90
2023-02-05T09:03:27.500Z,2.55
2023-02-05T09:05:29.039Z,3.35
2023-02-05T09:07:37.329Z,2.70
2023-02-05T09:09:39.056Z,3.78
2023-02-05T09:11:46.479Z,2.20
2023-02-05T09:15:49.375Z,2.75
2023-02-05T09:17:53.427Z,1.70
2023-02-05T09:19:55.020Z,3.30
2023-02-05T09:21:56.544Z,3.90
2023-02-05T09:24:04.166Z,3.03
2023-02-05T09:26:09.313Z,2.38
2023-02-05T09:28:11.970Z,2.00
2023-02-05T09:30:13.812Z,2.08
2023-02-05T09:32:15.298Z,2.70
2023-02-05T09:34:35.924Z,2.15
2023-02-05T09:36:56.401Z,2.35
2023-02-05T09:39:13.957Z,2.67
2023-02-05T09:41:38.958Z,2.72
2023-02-05T09:43:40.428Z,2.15
2023-02-05T09:48:12.046Z,1.60
2023-02-05T09:50:29.779Z,1.55
2023-02-05T09:52:35.189Z,2.58
2023-02-05T09:54:40.286Z,2.55
2023-02-05T09:56:45.825Z,2.40
2023-02-05T09:58:49.314Z,1.70
2023-02-05T10:01:01.143Z,2.17
2023-02-05T10:03:05.422Z,2.45
2023-02-05T10:05:14.071Z,2.28
2023-02-05T10:09:36.023Z,1.10
2023-02-05T10:11:48.921Z,1.85
2023-02-05T10:13:58.301Z,3.22
2023-02-05T10:16:07.671Z,2.60
2023-02-05T10:18:33.690Z,1.83
2023-02-05T10:20:35.230Z,2.95
2023-02-05T10:22:39.233Z,2.08
2023-02-05T10:24:46.712Z,3.10
2023-02-05T10:26:48.265Z,2.05
2023-02-05T10:28:49.937Z,2.65
2023-02-05T10:31:19.651Z,2.00
2023-02-05T10:33:35.583Z,2.22
2023-02-05T10:35:42.419Z,1.92
2023-02-05T10:37:54.128Z,2.33
2023-02-05T10:39:59.502Z,1.95
2023-02-05T10:42:27.550Z,1.70
2023-02-05T10:44:49.952Z,1.75
2023-02-05T10:47:06.456Z,1.83
2023-02-05T10:49:10.956Z,1.85
2023-02-05T10:51:17.205Z,1.70
2023-02-05T10:53:22.494Z,2.47
2023-02-05T10:55:23.979Z,2.05
2023-02-05T10:59:35.666Z,3.72
2023-02-05T11:01:44.885Z,2.08
2023-02-05T11:04:00.561Z,1.77
2023-02-05T11:06:02.817Z,1.65
2023-02-05T11:08:45.599Z,2.35
2023-02-05T11:10:53.491Z,2.45
2023-02-05T11:13:20.253Z,2.15
2023-02-05T11:15:24.507Z,1.88
2023-02-05T11:17:33.766Z,1.90
2023-02-05T11:19:35.352Z,2.97
2023-02-05T11:21:45.746Z,2.88
2023-02-05T11:23:54.912Z,1.75
2023-02-05T11:25:57.825Z,2.42
2023-02-05T11:28:02.580Z,2.00
2023-02-05T11:30:53.641Z,1.95
2023-02-05T11:33:21.285Z,1.50
2023-02-05T11:35:39.115Z,1.85
2023-02-05T11:37:56.437Z,1.38
2023-02-05T11:40:10.258Z,1.95
2023-02-05T11:42:31.355Z,1.90
2023-02-05T11:44:54.891Z,2.30
2023-02-05T11:47:11.062Z,2.92
2023-02-05T11:49:29.929Z,1.50
2023-02-05T11:51:54.543Z,1.70
2023-02-05T11:54:16.654Z,2.80
2023-02-05T11:56:36.300Z,1.60
2023-02-05T11:58:53.100Z,2.70
2023-02-05T12:00:59.440Z,1.90
2023-02-05T12:03:15.095Z,1.65
2023-02-05T12:05:21.684Z,2.05
2023-02-05T12:07:25.326Z,1.48
2023-02-05T12:09:29.900Z,1.70
2023-02-05T12:11:31.317Z,1.80
2023-02-05T12:13:35.878Z,1.80
2023-02-05T12:15:47.006Z,2.60
2023-02-05T12:17:53.848Z,1.60
2023-02-05T12:20:03.926Z,1.73
2023-02-05T12:22:24.206Z,1.63
2023-02-05T12:24:49.798Z,1.67
2023-02-05T12:26:53.248Z,2.00
2023-02-05T12:29:16.248Z,1.73
2023-02-05T12:31:32.248Z,2.33
2023-02-05T12:33:44.193Z,2.10
2023-02-05T12:36:03.035Z,1.65
2023-02-05T12:38:41.950Z,2.03
2023-02-05T12:40:58.910Z,1.85
2023-02-05T12:43:14.676Z,2.28
2023-02-05T12:45:24.674Z,2.25
2023-02-05T12:47:35.840Z,1.90
2023-02-05T12:49:42.979Z,2.08
2023-02-05T12:51:51.704Z,2.30
2023-02-05T12:53:55.701Z,2.42
2023-02-05T12:56:03.293Z,2.17
2023-02-05T12:58:09.956Z,2.63
2023-02-05T13:00:17.518Z,1.95
2023-02-05T13:02:29.464Z,1.65
2023-02-05T13:04:39.444Z,2.08
2023-02-05T13:06:48.600Z,1.42
2023-02-05T13:08:53.012Z,1.98
2023-02-05T13:10:59.910Z,1.92
2023-02-05T13:13:06.919Z,2.08
2023-02-05T13:15:16.619Z,1.98
2023-02-05T13:17:22.024Z,1.83
2023-02-05T13:19:41.050Z,1.85
2023-02-05T13:22:01.432Z,1.80
2023-02-05T13:24:43.434Z,1.77
2023-02-05T13:27:06.216Z,2.47
2023-02-05T13:29:12.511Z,2.15
2023-02-05T13:31:20.143Z,2.25
2023-02-05T13:33:27.779Z,1.42
2023-02-05T13:35:34.304Z,1.75
2023-02-05T13:37:59.262Z,1.58
2023-02-05T13:40:32.724Z,1.83
2023-02-05T13:42:55.581Z,1.55
2023-02-05T13:45:00.459Z,2.38
2023-02-05T13:47:01.893Z,2.10
2023-02-05T13:49:09.340Z,2.03
2023-02-05T13:51:13.400Z,1.55
2023-02-05T13:53:27.131Z,3.88
2023-02-05T13:55:40.790Z,3.00
2023-02-05T13:58:03.739Z,3.08
2023-02-05T14:00:12.803Z,2.85
2023-02-05T14:02:32.733Z,1.50
2023-02-05T14:04:41.737Z,2.25
2023-02-05T14:07:03.260Z,1.92
2023-02-05T14:09:09.442Z,1.17
2023-02-05T14:11:19.190Z,1.60
2023-02-05T14:13:25.795Z,1.58
2023-02-05T14:15:36.868Z,1.35
2023-02-05T14:17:41.434Z,2.03
2023-02-05T14:19:45.545Z,1.92
2023-02-05T14:21:57.775Z,1.60
2023-02-05T14:24:02.996Z,1.60
2023-02-05T14:26:04.520Z,2.38
2023-02-05T14:28:08.970Z,2.38
2023-02-05T14:30:40.170Z,1.35
2023-02-05T14:32:48.664Z,2.25
2023-02-05T14:35:16.056Z,1.50
2023-02-05T14:37:52.543Z,2.05
2023-02-05T14:40:25.973Z,1.52
2023-02-05T14:42:32.781Z,1.67
2023-02-05T14:45:00.897Z,1.40
2023-02-05T14:47:31.863Z,2.58
2023-02-05T14:49:51.182Z,1.90
2023-02-05T14:52:15.947Z,1.95
2023-02-05T14:54:54.622Z,1.50
2023-02-05T14:57:33.936Z,1.65
2023-02-05T15:00:04.714Z,1.52
2023-02-05T15:02:34.973Z,1.58
2023-02-05T15:04:57.144Z,1.70
2023-02-05T15:07:09.814Z,2.10
2023-02-05T15:09:39.305Z,1.60
2023-02-05T15:11:48.919Z,1.33
2023-02-05T15:14:11.597Z,2.35
2023-02-05T15:16:20.635Z,1.70
2023-02-05T15:20:47.379Z,1.20
2023-02-05T15:22:52.340Z,1.47
2023-02-05T15:24:57.008Z,1.58
2023-02-05T15:27:07.274Z,1.42
2023-02-05T15:29:14.117Z,1.45
2023-02-05T15:33:24.820Z,2.05
2023-02-05T15:35:30.819Z,4.13
2023-02-05T15:37:37.365Z,1.77
2023-02-05T15:39:41.772Z,1.83
2023-02-05T15:41:44.399Z,2.78
2023-02-05T15:44:02.507Z,2.10
2023-02-05T15:46:05.672Z,2.30
2023-02-05T15:48:10.404Z,2.72
2023-02-05T15:50:14.980Z,3.30
2023-02-05T15:52:21.678Z,1.55
2023-02-05T15:54:26.213Z,2.85
2023-02-05T15:56:38.232Z,2.88
2023-02-05T15:58:47.712Z,2.35
2023-02-05T16:01:07.845Z,1.88
2023-02-05T16:03:23.340Z,2.00
2023-02-05T16:05:25.675Z,1.88
2023-02-05T16:07:35.092Z,2.00
2023-02-05T16:09:38.740Z,2.17
2023-02-05T16:11:43.036Z,2.10
2023-02-05T16:13:44.431Z,2.83
2023-02-05T16:17:53.195Z,2.30
2023-02-05T16:20:00.537Z,2.58
2023-02-05T16:22:06.705Z,2.42
2023-02-05T16:24:17.891Z,2.45
2023-02-05T16:26:25.662Z,2.28
2023-02-05T16:28:52.136Z,2.40
2023-02-05T16:30:57.368Z,3.30
2023-02-05T16:33:04.701Z,3.40
2023-02-05T16:35:17.287Z,2.88
2023-02-05T16:37:19.120Z,3.00
2023-02-05T16:39:27.738Z,3.20
2023-02-05T16:41:59.893Z,2.97
2023-02-05T16:44:06.115Z,2.95
2023-02-05T16:46:07.678Z,3.00
2023-02-05T16:48:25.458Z,3.22
2023-02-05T16:50:36.154Z,3.05
2023-02-05T16:52:38.140Z,3.55
2023-02-05T16:54:41.805Z,3.45
2023-02-05T16:56:46.099Z,5.18
2023-02-05T17:00:59.458Z,3.78
2023-02-05T17:03:05.540Z,4.22
2023-02-05T17:05:21.909Z,4.65
2023-02-05T17:07:26.955Z,5.22
2023-02-05T17:09:28.367Z,4.22
2023-02-05T17:11:29.784Z,5.53
2023-02-05T17:13:33.827Z,4.30
2023-02-05T17:15:40.302Z,6.22
2023-02-05T17:18:06.329Z,4.55
2023-02-05T17:20:19.373Z,3.65
2023-02-05T17:22:23.442Z,3.88
2023-02-05T17:24:27.904Z,4.45
2023-02-05T17:26:33.511Z,3.92
2023-02-05T17:28:43.808Z,4.05
2023-02-05T17:30:48.504Z,4.60
2023-02-05T17:32:50.649Z,6.70
2023-02-05T17:34:57.601Z,7.20
2023-02-05T17:37:05.306Z,6.63
2023-02-05T17:39:09.251Z,5.78
2023-02-05T17:41:43.521Z,4.28
2023-02-05T17:46:07.730Z,7.85
2023-02-05T17:48:23.571Z,7.22
2023-02-05T17:50:39.311Z,7.35
2023-02-05T17:53:06.562Z,5.30
2023-02-05T17:55:18.660Z,10.02
2023-02-05T17:57:36.950Z,6.70
2023-02-05T17:59:51.523Z,7.55
2023-02-05T18:02:02.448Z,8.45
2023-02-05T18:04:11.403Z,8.10
2023-02-05T18:06:27.086Z,6.47
2023-02-05T18:08:39.610Z,6.38
2023-02-05T18:11:10.736Z,6.70
2023-02-05T18:13:23.372Z,7.22
2023-02-05T18:15:28.008Z,7.70
2023-02-05T18:17:32.215Z,6.72
2023-02-05T18:19:34.767Z,6.72
2023-02-05T18:21:38.994Z,8.98
2023-02-05T18:23:40.492Z,7.55
2023-02-05T18:27:47.585Z,10.15
2023-02-05T18:29:52.040Z,8.63
2023-02-05T18:33:57.505Z,9.18
2023-02-05T18:36:02.616Z,8.55
2023-02-05T18:38:06.724Z,8.38
2023-02-05T18:40:26.664Z,10.52
2023-02-05T18:42:29.477Z,11.13
2023-02-05T18:44:30.922Z,11.45
2023-02-05T18:46:32.707Z,15.60
2023-02-05T18:48:34.282Z,15.63
2023-02-05T18:52:39.664Z,14.23
2023-02-05T18:54:45.009Z,17.75
2023-02-05T18:56:49.653Z,13.60
2023-02-05T18:58:59.113Z,11.68
2023-02-05T19:01:12.039Z,12.07
2023-02-05T19:03:13.612Z,10.38
2023-02-05T19:05:34.562Z,10.77
2023-02-05T19:07:36.068Z,12.70
2023-02-05T19:09:40.405Z,11.90
2023-02-05T19:11:43.382Z,11.57
2023-02-05T19:13:47.922Z,12.48
2023-02-05T19:15:51.378Z,12.15
2023-02-05T19:17:55.938Z,11.93
2023-02-05T19:19:58.557Z,9.95
2023-02-05T19:22:19.203Z,12.35
2023-02-05T19:24:21.534Z,9.88
2023-02-05T19:26:28.069Z,10.25
2023-02-05T19:28:31.765Z,11.77
2023-02-05T19:30:37.322Z,9.15
2023-02-05T19:32:39.225Z,9.02
2023-02-05T19:34:45.026Z,9.38
2023-02-05T19:36:49.402Z,13.13
2023-02-05T19:38:54.123Z,15.32
2023-02-05T19:40:55.571Z,11.30
2023-02-05T19:42:58.681Z,11.15
2023-02-05T19:45:00.141Z,8.63
2023-02-05T19:47:04.274Z,11.10
2023-02-05T19:49:07.807Z,10.65
2023-02-05T19:51:13.182Z,9.80
2023-02-05T19:53:14.723Z,9.32
2023-02-05T19:55:16.212Z,10.32
2023-02-05T19:57:17.631Z,10.13
2023-02-05T19:59:21.810Z,10.45
2023-02-05T20:01:27.884Z,11.48
2023-02-05T20:03:29.495Z,12.20
2023-02-05T20:05:35.577Z,11.23
2023-02-05T20:07:43.436Z,13.50
2023-02-05T20:09:48.957Z,13.77
2023-02-05T20:11:52.568Z,17.05
2023-02-05T20:13:59.713Z,14.75
2023-02-05T20:16:02.578Z,16.33
2023-02-05T20:18:04.219Z,16.10
2023-02-05T20:20:15.785Z,15.55
2023-02-05T20:22:24.426Z,15.10
2023-02-05T20:24:25.835Z,17.50
2023-02-05T20:26:27.331Z,17.58
2023-02-05T20:28:32.385Z,16.13
2023-02-05T20:30:55.132Z,17.13
2023-02-05T20:32:56.599Z,17.02
2023-02-05T20:34:58.085Z,18.67
2023-02-05T20:37:01.175Z,15.68
2023-02-05T20:39:06.908Z,15.27
2023-02-05T20:41:12.773Z,15.95
2023-02-05T20:43:17.045Z,16.92
2023-02-05T20:45:22.518Z,17.85
2023-02-05T20:47:34.068Z,24.13
2023-02-05T20:49:50.402Z,17.42
2023-02-05T20:52:04.143Z,17.77
2023-02-05T20:54:15.617Z,16.52
2023-02-05T20:56:28.902Z,27.48
2023-02-05T20:58:43.254Z,29.02
2023-02-05T21:00:54.388Z,17.55
2023-02-05T21:03:08.303Z,15.95
2023-02-05T21:05:19.816Z,15.75
2023-02-05T21:07:34.268Z,16.13
2023-02-05T21:09:43.142Z,15.38
2023-02-05T21:11:47.600Z,16.60
2023-02-05T21:13:57.155Z,14.02
2023-02-05T21:16:27.525Z,14.48
2023-02-05T21:18:35.213Z,13.38
2023-02-05T21:20:41.038Z,13.77
2023-02-05T21:22:45.077Z,14.60
2023-02-05T21:24:49.166Z,15.68
2023-02-05T21:26:53.451Z,17.10
2023-02-05T21:28:56.229Z,17.85
2023-02-05T21:31:04.311Z,20.73
2023-02-05T21:33:06.134Z,20.88
2023-02-05T21:35:07.869Z,15.15
2023-02-05T21:37:12.208Z,18.17
2023-02-05T21:39:15.779Z,16.38
2023-02-05T21:41:17.907Z,16.85
2023-02-05T21:43:19.518Z,16.15
2023-02-05T21:47:24.967Z,15.68
2023-02-05T21:49:26.444Z,18.15
2023-02-05T21:51:29.414Z,18.05
2023-02-05T21:53:33.655Z,17.23
2023-02-05T21:55:35.225Z,15.95
2023-02-05T21:59:43.767Z,19.73
2023-02-05T22:01:47.928Z,17.60
2023-02-05T22:05:56.127Z,15.57
2023-02-05T22:09:59.038Z,14.20
2023-02-05T22:12:03.743Z,17.35
2023-02-05T22:14:08.478Z,16.25
2023-02-05T22:16:14.066Z,17.25
2023-02-05T22:18:21.849Z,17.30
2023-02-05T22:20:26.078Z,15.75
2023-02-05T22:22:27.623Z,19.50
2023-02-05T22:24:29.105Z,19.85
2023-02-05T22:26:31.960Z,18.40
2023-02-05T22:28:37.183Z,18.92
2023-02-05T22:30:41.437Z,18.85
2023-02-05T22:32:43.015Z,17.98
2023-02-05T22:34:47.194Z,18.27
2023-02-05T22:36:51.667Z,18.92
2023-02-05T22:38:53.803Z,18.13
2023-02-05T22:40:58.354Z,21.05
2023-02-05T22:42:59.861Z,18.92
2023-02-05T22:45:04.326Z,17.17
2023-02-05T22:47:08.367Z,17.52
2023-02-05T22:49:10.768Z,17.83
2023-02-05T22:51:22.240Z,16.67
2023-02-05T22:53:23.796Z,17.92
2023-02-05T22:55:28.285Z,16.63
2023-02-05T22:57:29.989Z,15.85
2023-02-05T22:59:34.402Z,17.60
2023-02-05T23:01:37.949Z,18.80
2023-02-05T23:03:39.933Z,20.25
2023-02-05T23:05:41.402Z,22.27
2023-02-05T23:07:42.880Z,25.77
2023-02-05T23:09:47.478Z,20.85
2023-02-05T23:11:54.427Z,18.38
2023-02-05T23:13:59.284Z,18.35
2023-02-05T23:16:10.414Z,17.75
2023-02-05T23:18:14.537Z,18.23
2023-02-05T23:20:16.760Z,17.58
2023-02-05T23:22:18.363Z,15.85
2023-02-05T23:24:22.902Z,15.50
2023-02-05T23:26:28.796Z,15.85
2023-02-05T23:28:30.326Z,18.88
2023-02-05T23:30:31.977Z,15.27
2023-02-05T23:32:33.523Z,15.77
2023-02-05T23:34:35.101Z,15.88
2023-02-05T23:38:43.221Z,14.50
2023-02-05T23:40:44.701Z,13.90
2023-02-05T23:42:46.842Z,14.32
2023-02-05T23:44:48.309Z,13.77
2023-02-05T23:46:52.392Z,16.25
2023-02-05T23:49:05.039Z,15.50
2023-02-05T23:51:16.688Z,15.20
2023-02-05T23:53:32.678Z,14.05
2023-02-05T23:55:59.012Z,14.07
2023-02-05T23:58:13.966Z,13.40
